Time;durP1;ratioP1;P1;durP2;ratioP2;P2;SDS_P1;SDS_P2;PMS_P1;PMS_P2;Temp;Humidity;BMP_temperature;BMP_pressure;BME280_temperature;BME280_humidity;BME280_pressure;Samples;Min_cycle;Max_cycle;Signal;HPM_P1;HPM_P2
2022/06/18 00:00:25;;;;;;;9.30;4.40;;;19.70;99.90;;;;;;5055412;28;20487;-59
2022/06/18 00:02:51;;;;;;;9.45;4.47;;;19.90;99.90;;;;;;5054894;28;20088;-58
2022/06/18 00:05:19;;;;;;;11.23;4.50;;;19.60;99.90;;;;;;5037297;28;20130;-58
2022/06/18 00:07:48;;;;;;;7.60;4.57;;;19.70;99.90;;;;;;5037233;28;20489;-59
2022/06/18 00:10:17;;;;;;;8.75;4.18;;;19.60;99.90;;;;;;5055427;28;20171;-59
2022/06/18 00:15:31;;;;;;;9.13;4.22;;;19.50;99.90;;;;;;5055238;28;20053;-59
2022/06/18 00:17:57;;;;;;;8.05;3.90;;;19.40;99.90;;;;;;5055186;28;20045;-59
2022/06/18 00:20:24;;;;;;;7.88;4.30;;;19.40;99.90;;;;;;5054591;28;20067;-59
2022/06/18 00:22:54;;;;;;;5.15;3.70;;;19.30;99.90;;;;;;5036959;28;20052;-59
2022/06/18 00:25:23;;;;;;;8.00;3.75;;;19.70;99.90;;;;;;5054899;28;20059;-60
2022/06/18 00:27:49;;;;;;;6.88;3.65;;;19.20;99.90;;;;;;5054735;28;20102;-59
2022/06/18 00:30:17;;;;;;;5.47;4.00;;;19.10;99.90;;;;;;5054602;28;20451;-59
2022/06/18 00:32:43;;;;;;;6.80;4.10;;;19.10;99.90;;;;;;5054526;28;20053;-59
2022/06/18 00:35:09;;;;;;;5.88;4.20;;;19.00;99.90;;;;;;5036623;28;20136;-59
2022/06/18 00:37:35;;;;;;;11.02;4.13;;;19.00;99.90;;;;;;5036344;28;20041;-59
2022/06/18 00:40:01;;;;;;;12.20;4.63;;;19.00;99.90;;;;;;5054349;28;20045;-59
2022/06/18 00:42:30;;;;;;;10.10;4.40;;;19.00;99.90;;;;;;5054420;28;20076;-59
2022/06/18 00:44:59;;;;;;;6.38;4.30;;;19.00;99.90;;;;;;5054331;28;20092;-58
2022/06/18 00:47:39;;;;;;;6.78;4.43;;;18.90;99.90;;;;;;5053888;28;20052;-58
2022/06/18 00:50:17;;;;;;;8.20;4.70;;;18.90;99.90;;;;;;5053596;28;20093;-59
2022/06/18 00:52:55;;;;;;;8.80;4.38;;;18.90;99.90;;;;;;5054315;28;20076;-59
2022/06/18 00:55:31;;;;;;;7.47;4.60;;;19.00;99.90;;;;;;5053995;28;20102;-59
2022/06/18 00:58:06;;;;;;;7.50;4.47;;;19.00;99.90;;;;;;5036436;28;20080;-59
2022/06/18 01:00:58;;;;;;;8.27;4.50;;;19.40;99.90;;;;;;5071787;22;20129;-66
2022/06/18 01:03:28;;;;;;;8.10;4.68;;;18.80;99.90;;;;;;5080778;28;20045;-67
2022/06/18 01:05:57;;;;;;;14.07;5.18;;;19.00;99.90;;;;;;5081411;28;20541;-67
2022/06/18 01:08:26;;;;;;;12.13;4.78;;;19.20;99.90;;;;;;5079041;28;20055;-67
2022/06/18 01:10:57;;;;;;;12.05;4.70;;;18.90;99.90;;;;;;5072435;28;20055;-67
2022/06/18 01:13:28;;;;;;;9.88;4.40;;;19.00;99.90;;;;;;5071086;28;20051;-67
2022/06/18 01:15:56;;;;;;;9.00;4.57;;;18.80;99.90;;;;;;5069982;28;20498;-64
2022/06/18 01:18:22;;;;;;;9.05;4.85;;;18.70;99.90;;;;;;5070967;28;20053;-63
2022/06/18 01:21:09;;;;;;;7.38;4.85;;;18.90;99.90;;;;;;5069621;28;20048;-63
2022/06/18 01:23:42;;;;;;;9.15;4.97;;;18.90;99.90;;;;;;5052709;28;20051;-63
2022/06/18 01:26:10;;;;;;;10.13;5.07;;;18.80;99.90;;;;;;5069941;28;20087;-62
2022/06/18 01:28:36;;;;;;;7.18;5.10;;;19.10;99.90;;;;;;5070768;28;20044;-63
2022/06/18 01:31:02;;;;;;;7.30;5.10;;;18.90;99.90;;;;;;5052343;28;20140;-62
2022/06/18 01:33:28;;;;;;;11.60;5.47;;;18.80;99.90;;;;;;5070873;28;20053;-64
2022/06/18 01:35:55;;;;;;;14.07;5.35;;;19.00;99.90;;;;;;5063847;28;20080;-67
2022/06/18 01:38:24;;;;;;;13.77;5.47;;;18.40;99.90;;;;;;5090627;28;20090;-67
2022/06/18 01:43:48;;;;;;;12.98;5.65;;;18.90;99.90;;;;;;5090234;28;20115;-67
2022/06/18 01:46:13;;;;;;;13.95;5.85;;;19.00;99.90;;;;;;5090208;28;20087;-67
2022/06/18 01:48:42;;;;;;;14.38;5.70;;;18.90;99.90;;;;;;5090555;28;20071;-68
2022/06/18 01:51:24;;;;;;;10.35;5.45;;;18.70;99.90;;;;;;5089960;28;20480;-68
2022/06/18 01:53:55;;;;;;;9.30;5.25;;;18.90;99.90;;;;;;5072234;28;20087;-67
2022/06/18 01:56:25;;;;;;;12.20;6.00;;;19.00;99.90;;;;;;5090340;28;20170;-67
2022/06/18 01:59:05;;;;;;;9.32;6.18;;;18.80;99.90;;;;;;5090217;28;20483;-67
2022/06/18 02:01:34;;;;;;;9.88;5.60;;;18.80;99.90;;;;;;5096874;28;20186;-67
2022/06/18 02:04:02;;;;;;;9.48;5.95;;;18.80;99.90;;;;;;5096347;28;20083;-66
2022/06/18 02:06:29;;;;;;;14.57;6.35;;;18.80;99.90;;;;;;5097171;28;20059;-67
2022/06/18 02:08:55;;;;;;;13.18;6.28;;;18.70;99.90;;;;;;5093292;28;20048;-67
2022/06/18 02:11:22;;;;;;;14.05;6.72;;;18.80;99.90;;;;;;5076540;28;20052;-66
2022/06/18 02:13:54;;;;;;;9.25;6.00;;;19.50;99.90;;;;;;5076610;28;20060;-67
2022/06/18 02:16:25;;;;;;;12.93;6.38;;;19.00;99.90;;;;;;5077033;28;20047;-66
2022/06/18 02:18:51;;;;;;;11.02;6.32;;;19.00;99.90;;;;;;5075982;28;20409;-67
2022/06/18 02:21:22;;;;;;;9.77;6.20;;;19.00;99.90;;;;;;5076349;28;20051;-66
2022/06/18 02:23:51;;;;;;;12.20;6.57;;;18.70;99.90;;;;;;5076360;28;20040;-67
2022/06/18 02:26:19;;;;;;;8.85;6.50;;;19.40;99.90;;;;;;5064974;28;20047;-67
2022/06/18 02:28:45;;;;;;;12.73;6.25;;;18.70;99.90;;;;;;5096798;28;20123;-66
2022/06/18 02:31:16;;;;;;;12.05;6.43;;;18.80;99.90;;;;;;5096612;28;20091;-67
2022/06/18 02:33:47;;;;;;;8.63;6.65;;;18.40;99.90;;;;;;5096387;28;20090;-66
2022/06/18 02:36:20;;;;;;;11.18;6.55;;;19.30;99.90;;;;;;5096643;28;20487;-67
2022/06/18 02:38:47;;;;;;;14.68;6.20;;;18.80;99.90;;;;;;5096550;28;20436;-64
2022/06/18 02:41:13;;;;;;;14.77;6.97;;;18.50;99.90;;;;;;5097114;28;20127;-66
2022/06/18 02:43:41;;;;;;;12.30;7.75;;;18.80;99.90;;;;;;5096630;28;20426;-66
2022/06/18 02:46:07;;;;;;;11.60;7.50;;;18.80;99.90;;;;;;5096754;28;20430;-66
2022/06/18 02:48:36;;;;;;;13.05;7.43;;;19.50;99.90;;;;;;5096163;28;20040;-66
2022/06/18 02:51:03;;;;;;;14.98;7.53;;;18.80;99.90;;;;;;5096710;28;20119;-66
2022/06/18 02:53:30;;;;;;;10.68;7.07;;;18.80;99.90;;;;;;5097054;28;20052;-66
2022/06/18 02:55:58;;;;;;;12.98;7.10;;;18.60;99.90;;;;;;5095861;28;20548;-66
2022/06/18 02:58:26;;;;;;;11.75;7.75;;;19.10;99.90;;;;;;5096891;28;20055;-66
2022/06/18 03:00:53;;;;;;;14.80;7.47;;;;;;;;;;5095844;28;20398;-66
2022/06/18 03:03:21;;;;;;;10.93;7.60;;;18.50;99.90;;;;;;5078270;28;20060;-66
2022/06/18 03:05:47;;;;;;;15.40;8.05;;;19.10;99.90;;;;;;5096102;28;20044;-66
2022/06/18 03:08:13;;;;;;;13.63;7.53;;;18.60;99.90;;;;;;5078571;28;20043;-66
2022/06/18 03:13:24;;;;;;;12.70;7.80;;;19.80;99.90;;;;;;5093638;28;20402;-66
2022/06/18 03:15:53;;;;;;;12.60;7.68;;;18.60;99.90;;;;;;5092571;28;20048;-66
2022/06/18 03:18:20;;;;;;;12.13;7.78;;;18.70;99.90;;;;;;5092705;28;20056;-66
2022/06/18 03:20:49;;;;;;;9.80;7.57;;;18.30;99.90;;;;;;5074676;28;20036;-66
2022/06/18 03:23:17;;;;;;;10.50;7.05;;;18.70;99.90;;;;;;5093486;28;20051;-66
2022/06/18 03:25:44;;;;;;;10.60;7.38;;;18.50;99.90;;;;;;5092819;28;20406;-66
2022/06/18 03:28:12;;;;;;;14.00;8.05;;;19.00;99.90;;;;;;5074359;28;20092;-66
2022/06/18 03:30:39;;;;;;;11.35;7.30;;;18.60;99.90;;;;;;5092741;28;20057;-66
2022/06/18 03:33:05;;;;;;;11.23;7.72;;;19.10;99.90;;;;;;5092668;28;20044;-66
2022/06/18 03:35:31;;;;;;;9.95;7.93;;;18.50;99.90;;;;;;5092902;28;20048;-66
2022/06/18 03:37:57;;;;;;;12.43;7.90;;;18.50;99.90;;;;;;5092451;28;20392;-67
2022/06/18 03:40:24;;;;;;;10.82;7.70;;;;;;;;;;5092733;28;20564;-66
2022/06/18 03:42:51;;;;;;;15.18;8.15;;;18.70;99.90;;;;;;5092153;28;20048;-66
2022/06/18 03:45:17;;;;;;;13.27;8.40;;;18.70;99.90;;;;;;5092860;28;20048;-66
2022/06/18 03:47:43;;;;;;;13.23;8.10;;;20.10;99.90;;;;;;5092253;28;20055;-66
2022/06/18 03:50:15;;;;;;;16.90;8.20;;;18.80;99.90;;;;;;5074551;28;20044;-66
2022/06/18 03:52:41;;;;;;;16.42;8.20;;;18.80;99.90;;;;;;5092302;28;20295;-66
2022/06/18 03:55:08;;;;;;;11.48;8.07;;;19.10;99.90;;;;;;5092022;28;20512;-66
2022/06/18 03:57:34;;;;;;;10.93;8.10;;;19.60;99.90;;;;;;5092343;28;20044;-66
2022/06/18 04:00:00;;;;;;;15.38;8.63;;;19.20;99.90;;;;;;5091622;28;20569;-66
2022/06/18 04:02:25;;;;;;;16.00;8.15;;;19.10;99.90;;;;;;5092541;28;20567;-66
2022/06/18 04:04:51;;;;;;;14.25;8.02;;;19.20;99.90;;;;;;5092088;28;20123;-66
2022/06/18 04:07:20;;;;;;;11.07;8.00;;;19.60;99.90;;;;;;5092344;28;20075;-66
2022/06/18 04:09:46;;;;;;;12.52;8.40;;;19.70;99.90;;;;;;5091423;28;20048;-66
2022/06/18 04:12:12;;;;;;;11.13;8.10;;;20.00;99.90;;;;;;5092047;28;20044;-66
2022/06/18 04:14:37;;;;;;;14.98;8.05;;;20.20;99.90;;;;;;5092010;28;20052;-66
2022/06/18 04:17:04;;;;;;;13.10;8.45;;;20.40;99.90;;;;;;5091485;28;20131;-66
2022/06/18 04:19:29;;;;;;;10.55;8.10;;;20.90;99.90;;;;;;5074037;28;20109;-66
2022/06/18 04:21:55;;;;;;;11.65;8.13;;;21.80;99.90;;;;;;5091438;28;20036;-66
2022/06/18 04:24:21;;;;;;;11.40;8.25;;;21.00;99.90;;;;;;5092085;28;20040;-66
2022/06/18 04:26:46;;;;;;;9.88;8.02;;;21.30;99.90;;;;;;5091078;28;20136;-66
2022/06/18 04:29:12;;;;;;;13.27;8.23;;;21.00;99.90;;;;;;5091800;28;20044;-67
2022/06/18 04:31:38;;;;;;;13.75;7.55;;;22.40;99.90;;;;;;5091417;28;20127;-67
2022/06/18 04:34:04;;;;;;;14.93;8.65;;;21.20;99.90;;;;;;5091688;28;20122;-66
2022/06/18 04:36:36;;;;;;;14.23;8.75;;;21.60;99.90;;;;;;5091451;28;20208;-66
2022/06/18 04:39:01;;;;;;;13.80;8.23;;;22.10;99.90;;;;;;5072905;28;20502;-67
2022/06/18 04:41:27;;;;;;;12.52;8.55;;;22.60;99.90;;;;;;5091790;28;20044;-67
2022/06/18 04:43:53;;;;;;;11.27;8.57;;;23.20;99.90;;;;;;5090932;28;20043;-67
2022/06/18 04:46:19;;;;;;;10.95;8.10;;;23.70;99.90;;;;;;5091746;28;20102;-67
2022/06/18 04:48:45;;;;;;;14.25;8.15;;;24.20;99.90;;;;;;5091101;28;20417;-67
2022/06/18 04:51:10;;;;;;;14.45;8.23;;;24.20;99.90;;;;;;5073132;28;20051;-67
2022/06/18 04:53:36;;;;;;;19.17;8.63;;;24.60;99.90;;;;;;5091167;28;20061;-67
2022/06/18 04:56:01;;;;;;;13.75;8.40;;;25.00;99.90;;;;;;5091151;28;20051;-67
2022/06/18 04:58:27;;;;;;;14.38;8.63;;;25.20;99.90;;;;;;5090873;28;20048;-67
2022/06/18 05:00:53;;;;;;;15.25;8.75;;;25.50;99.90;;;;;;5090564;28;20127;-67
2022/06/18 05:03:21;;;;;;;18.90;9.00;;;25.70;99.80;;;;;;5091316;28;20052;-67
2022/06/18 05:05:47;;;;;;;11.88;8.30;;;26.00;98.80;;;;;;5090888;28;20093;-68
2022/06/18 05:08:13;;;;;;;14.93;8.52;;;26.60;99.90;;;;;;5072899;28;20051;-67
2022/06/18 05:10:39;;;;;;;13.20;8.02;;;26.80;99.70;;;;;;5072683;28;20398;-67
2022/06/18 05:13:06;;;;;;;15.32;8.68;;;26.80;95.60;;;;;;5090472;28;20040;-67
2022/06/18 05:15:33;;;;;;;20.80;8.75;;;26.90;97.20;;;;;;5090793;28;20048;-67
2022/06/18 05:17:59;;;;;;;17.13;8.32;;;26.70;96.10;;;;;;5072467;28;20423;-67
2022/06/18 05:20:25;;;;;;;16.75;8.52;;;27.60;92.10;;;;;;5090714;28;20044;-67
2022/06/18 05:22:51;;;;;;;17.08;8.60;;;27.70;91.30;;;;;;5089949;28;20089;-67
2022/06/18 05:25:17;;;;;;;15.55;8.60;;;27.80;95.00;;;;;;5091104;28;20508;-67
2022/06/18 05:27:45;;;;;;;21.13;8.50;;;27.80;89.70;;;;;;5090255;28;20048;-67
2022/06/18 05:30:18;;;;;;;18.98;8.63;;;27.90;88.70;;;;;;5090775;28;20460;-67
2022/06/18 05:32:44;;;;;;;15.73;8.55;;;28.10;87.20;;;;;;5090589;28;20044;-67
2022/06/18 05:35:11;;;;;;;17.65;8.45;;;28.40;85.60;;;;;;5089887;28;20406;-67
2022/06/18 05:37:38;;;;;;;19.35;8.45;;;28.50;83.90;;;;;;5090825;28;20479;-68
2022/06/18 05:40:05;;;;;;;15.90;7.32;;;28.90;82.10;;;;;;5090460;28;20048;-68
2022/06/18 05:42:31;;;;;;;18.33;8.85;;;29.40;80.70;;;;;;5090104;28;20052;-67
2022/06/18 05:44:57;;;;;;;16.88;8.45;;;29.60;78.00;;;;;;5090093;28;20044;-67
2022/06/18 05:47:25;;;;;;;20.92;8.40;;;29.80;76.40;;;;;;5090795;28;20046;-67
2022/06/18 05:49:52;;;;;;;21.33;9.25;;;30.10;74.50;;;;;;5089796;28;20048;-68
2022/06/18 05:52:19;;;;;;;18.40;8.65;;;30.20;72.90;;;;;;5090667;28;20039;-67
2022/06/18 05:54:46;;;;;;;16.85;8.45;;;30.30;71.70;;;;;;5089917;28;20127;-67
2022/06/18 05:57:12;;;;;;;18.77;9.35;;;30.50;70.60;;;;;;5090257;28;20409;-67
2022/06/18 05:59:37;;;;;;;22.45;8.70;;;30.60;69.40;;;;;;5090588;28;20054;-67
2022/06/18 06:02:03;;;;;;;19.27;8.30;;;30.60;68.50;;;;;;5085957;28;20407;-67
2022/06/18 06:04:30;;;;;;;18.92;8.90;;;30.90;75.70;;;;;;5089148;28;20067;-67
2022/06/18 06:06:56;;;;;;;18.38;8.77;;;30.90;67.10;;;;;;5077311;28;20055;-67
2022/06/18 06:12:11;;;;;;;;;;;31.30;65.00;;;;;;5075712;28;20041;-67
2022/06/18 06:14:41;;;;;;;25.08;9.25;;;31.50;64.60;;;;;;5079794;28;20007;-68
2022/06/18 06:17:13;;;;;;;25.20;9.20;;;32.00;69.10;;;;;;5081024;28;20047;-67
2022/06/18 06:19:38;;;;;;;18.50;9.40;;;32.00;61.80;;;;;;5051535;28;20556;-69
2022/06/18 06:22:04;;;;;;;20.02;9.20;;;31.90;61.50;;;;;;5068485;28;20036;-67
2022/06/18 06:24:30;;;;;;;20.42;9.07;;;32.10;60.90;;;;;;5069678;28;20098;-67
2022/06/18 06:26:55;;;;;;;16.00;8.32;;;32.30;60.70;;;;;;5067910;28;20045;-67
2022/06/18 06:29:21;;;;;;;20.27;9.10;;;33.10;68.30;;;;;;5069767;28;20045;-67
2022/06/18 06:31:47;;;;;;;23.27;8.95;;;32.20;59.90;;;;;;5068166;28;20465;-67
2022/06/18 06:34:12;;;;;;;21.45;8.60;;;32.10;60.00;;;;;;5069482;28;20469;-67
2022/06/18 06:36:38;;;;;;;21.40;8.30;;;32.10;60.10;;;;;;5068761;28;20395;-67
2022/06/18 06:39:04;;;;;;;18.65;8.82;;;31.90;60.20;;;;;;5069106;28;20049;-64
2022/06/18 06:41:31;;;;;;;21.30;8.75;;;32.10;59.90;;;;;;5068445;28;20055;-63
2022/06/18 06:43:57;;;;;;;22.85;8.98;;;32.20;59.30;;;;;;5068638;28;20506;-64
2022/06/18 06:46:23;;;;;;;20.52;8.90;;;32.00;59.40;;;;;;5069117;28;20083;-63
2022/06/18 06:48:49;;;;;;;23.27;8.43;;;31.80;59.50;;;;;;5092186;28;20050;-63
2022/06/18 06:51:17;;;;;;;21.05;8.85;;;31.70;59.50;;;;;;5093401;28;20048;-64
2022/06/18 06:53:43;;;;;;;17.40;8.45;;;31.60;59.90;;;;;;5092607;28;20084;-63
2022/06/18 06:58:59;;;;;;;21.55;9.05;;;31.40;60.80;;;;;;5092089;28;20123;-65
2022/06/18 07:01:25;;;;;;;26.85;9.30;;;31.60;66.90;;;;;;5092957;28;20503;-63
2022/06/18 07:03:51;;;;;;;20.05;8.90;;;31.40;60.50;;;;;;5091934;28;20534;-64
2022/06/18 07:06:17;;;;;;;24.13;8.93;;;31.40;60.60;;;;;;5092883;28;20135;-64
2022/06/18 07:08:44;;;;;;;25.02;9.15;;;31.40;67.40;;;;;;5092375;28;20059;-67
2022/06/18 07:11:10;;;;;;;21.40;9.32;;;31.10;61.50;;;;;;5092513;28;20052;-68
2022/06/18 07:13:36;;;;;;;25.10;8.90;;;31.00;62.20;;;;;;5092696;28;20119;-67
2022/06/18 07:16:02;;;;;;;16.30;8.60;;;31.00;62.90;;;;;;5091819;28;20181;-67
2022/06/18 07:18:33;;;;;;;19.08;8.65;;;31.00;63.10;;;;;;5074216;28;20059;-66
2022/06/18 07:21:00;;;;;;;18.33;8.30;;;30.80;63.60;;;;;;5091703;28;20052;-67
2022/06/18 07:23:26;;;;;;;14.45;8.23;;;30.70;64.10;;;;;;5092164;28;20055;-66
2022/06/18 07:25:52;;;;;;;16.08;7.82;;;30.70;69.50;;;;;;5090944;28;20048;-67
2022/06/18 07:28:18;;;;;;;21.02;8.02;;;30.70;64.40;;;;;;5092336;28;20422;-67
2022/06/18 07:30:46;;;;;;;19.42;8.48;;;30.50;64.50;;;;;;5091962;28;20394;-67
2022/06/18 07:33:33;;;;;;;21.75;7.70;;;30.50;65.00;;;;;;5092447;28;20071;-67
2022/06/18 07:35:59;;;;;;;20.52;7.90;;;30.50;65.20;;;;;;5091352;28;20215;-66
2022/06/18 07:38:25;;;;;;;21.13;7.53;;;30.90;73.30;;;;;;5092080;28;20442;-67
2022/06/18 07:40:54;;;;;;;21.05;7.78;;;30.80;65.80;;;;;;5091108;28;20046;-67
2022/06/18 07:43:32;;;;;;;13.63;6.35;;;30.90;65.60;;;;;;5092270;28;20097;-67
2022/06/18 07:45:58;;;;;;;16.75;7.05;;;31.00;65.30;;;;;;5091488;28;20044;-66
2022/06/18 07:48:23;;;;;;;14.88;6.82;;;31.00;65.30;;;;;;5092077;28;20051;-67
2022/06/18 07:50:50;;;;;;;19.50;7.45;;;31.10;65.20;;;;;;5091029;28;20056;-67
2022/06/18 07:53:23;;;;;;;17.58;7.50;;;31.00;64.90;;;;;;5091789;28;20059;-67
2022/06/18 07:55:50;;;;;;;20.45;7.15;;;30.80;64.60;;;;;;5090819;28;20401;-67
2022/06/18 07:58:16;;;;;;;19.75;7.10;;;30.80;64.80;;;;;;5073162;28;20572;-67
2022/06/18 08:00:42;;;;;;;15.40;6.72;;;30.70;64.80;;;;;;5091404;28;20052;-66
2022/06/18 08:03:12;;;;;;;15.93;6.50;;;30.80;64.60;;;;;;5073554;28;20511;-66
2022/06/18 08:05:38;;;;;;;14.80;5.60;;;30.60;68.10;;;;;;5092214;28;20052;-67
2022/06/18 08:08:05;;;;;;;15.07;6.13;;;30.60;64.50;;;;;;5091102;28;20052;-67
2022/06/18 08:10:36;;;;;;;14.93;6.15;;;30.60;64.40;;;;;;5091051;28;20048;-67
2022/06/18 08:13:02;;;;;;;18.05;5.55;;;30.50;63.90;;;;;;5072901;28;20052;-67
2022/06/18 08:15:27;;;;;;;17.88;5.93;;;30.40;64.40;;;;;;5091079;28;20122;-67
2022/06/18 08:17:53;;;;;;;21.02;5.80;;;30.50;64.20;;;;;;5090786;28;20598;-66
2022/06/18 08:20:20;;;;;;;14.57;5.65;;;30.60;64.10;;;;;;5091029;28;20475;-66
2022/06/18 08:22:48;;;;;;;18.38;6.07;;;30.50;64.00;;;;;;5090681;28;20534;-67
2022/06/18 08:25:17;;;;;;;11.82;4.95;;;30.40;64.10;;;;;;5090597;28;20048;-66
2022/06/18 08:27:43;;;;;;;16.48;5.70;;;30.40;64.60;;;;;;5091300;28;20490;-67
2022/06/18 08:30:10;;;;;;;13.63;5.78;;;30.30;65.10;;;;;;5090748;28;20521;-67
2022/06/18 08:32:36;;;;;;;12.88;5.88;;;30.40;64.30;;;;;;5091032;28;20108;-67
2022/06/18 08:35:01;;;;;;;12.60;5.22;;;30.40;64.00;;;;;;5090624;28;20520;-67
2022/06/18 08:37:29;;;;;;;18.67;5.90;;;30.20;64.50;;;;;;5090954;28;20125;-67
2022/06/18 08:39:57;;;;;;;16.08;5.60;;;30.00;64.80;;;;;;5090402;28;20395;-67
2022/06/18 08:42:50;;;;;;;14.18;5.40;;;30.00;64.40;;;;;;5090475;28;20048;-67
2022/06/18 08:45:32;;;;;;;9.95;4.80;;;28.80;69.30;;;;;;5090620;28;20084;-67
2022/06/18 08:48:13;;;;;;;9.07;4.55;;;27.50;67.40;;;;;;5081145;28;20052;-67
2022/06/18 08:50:53;;;;;;;14.38;5.10;;;30.20;71.40;;;;;;5090482;28;20506;-67
2022/06/18 08:53:44;;;;;;;12.52;4.80;;;29.00;70.30;;;;;;5089794;28;20527;-67
2022/06/18 08:56:23;;;;;;;12.55;4.72;;;29.40;66.20;;;;;;5089773;28;20044;-67
2022/06/18 08:58:55;;;;;;;10.43;4.55;;;29.40;62.60;;;;;;5089944;28;20048;-67
2022/06/18 09:01:28;;;;;;;13.07;4.90;;;28.60;70.50;;;;;;5101616;28;20054;-67
2022/06/18 09:04:51;;;;;;;8.75;4.55;;;29.30;64.10;;;;;;5110285;28;20130;-67
2022/06/18 09:07:41;;;;;;;8.38;3.97;;;30.50;65.90;;;;;;5007993;28;20046;-68
2022/06/18 09:10:28;;;;;;;7.15;3.63;;;29.10;63.20;;;;;;5006393;28;20054;-67
2022/06/18 09:13:02;;;;;;;11.73;3.83;;;29.00;62.20;;;;;;4991225;28;20617;-65
2022/06/18 09:15:34;;;;;;;10.30;3.35;;;28.80;62.70;;;;;;4992044;28;20050;-64
2022/06/18 09:18:25;;;;;;;10.93;4.13;;;28.80;63.30;;;;;;4990518;28;20782;-65
2022/06/18 09:21:00;;;;;;;9.77;4.28;;;28.90;63.30;;;;;;4974232;28;20050;-64
2022/06/18 09:23:28;;;;;;;;;;;28.90;64.20;;;;;;5008296;28;20053;-64
2022/06/18 09:25:56;;;;;;;11.15;4.10;;;29.00;72.10;;;;;;5006358;28;19929;-64
2022/06/18 09:28:25;;;;;;;9.32;3.85;;;29.00;65.90;;;;;;4991695;28;20064;-64
2022/06/18 09:31:02;;;;;;;13.77;4.38;;;29.10;65.70;;;;;;5006973;28;20072;-64
2022/06/18 09:33:36;;;;;;;14.05;4.38;;;29.20;65.20;;;;;;4991114;28;20057;-65
2022/06/18 09:36:25;;;;;;;12.68;4.40;;;29.30;65.40;;;;;;5006891;28;20085;-64
2022/06/18 09:39:08;;;;;;;14.70;4.18;;;28.90;69.30;;;;;;5099314;28;20129;-64
2022/06/18 09:41:41;;;;;;;12.55;3.97;;;29.60;63.40;;;;;;5069981;28;20076;-63
2022/06/18 09:44:19;;;;;;;11.43;4.68;;;30.70;71.00;;;;;;5069020;28;20087;-64
2022/06/18 09:47:07;;;;;;;16.10;4.40;;;29.70;64.20;;;;;;5074296;28;20072;-64
2022/06/18 09:49:33;;;;;;;15.80;5.00;;;29.60;63.90;;;;;;5110015;28;20054;-65
2022/06/18 09:52:13;;;;;;;8.27;4.20;;;29.30;65.30;;;;;;5108931;28;20054;-64
2022/06/18 09:54:58;;;;;;;12.43;4.13;;;29.40;65.90;;;;;;5109705;28;20057;-65
2022/06/18 09:57:29;;;;;;;12.05;3.85;;;29.40;65.60;;;;;;5110623;28;20049;-65
2022/06/18 10:00:20;;;;;;;8.98;3.50;;;29.50;65.30;;;;;;5091067;28;20054;-65
2022/06/18 10:03:01;;;;;;;10.43;3.55;;;29.00;71.10;;;;;;5109105;28;20059;-64
2022/06/18 10:08:32;;;;;;;15.43;3.63;;;28.70;72.70;;;;;;5110049;28;20058;-65
2022/06/18 10:11:07;;;;;;;9.75;3.85;;;28.20;69.60;;;;;;5108836;28;20123;-65
2022/06/18 10:13:54;;;;;;;10.70;3.83;;;29.10;65.70;;;;;;5109918;28;20042;-64
2022/06/18 10:16:44;;;;;;;9.02;3.65;;;29.50;73.00;;;;;;5091124;28;20521;-64
2022/06/18 10:19:50;;;;;;;9.85;3.80;;;28.60;67.50;;;;;;5068640;28;20519;-64
2022/06/18 10:22:41;;;;;;;12.13;3.75;;;28.10;72.00;;;;;;4991120;28;20090;-64
2022/06/18 10:25:25;;;;;;;9.90;3.67;;;28.60;67.90;;;;;;4990627;28;20564;-64
2022/06/18 10:28:04;;;;;;;8.30;3.47;;;28.60;69.70;;;;;;4974903;28;20085;-64
2022/06/18 10:30:37;;;;;;;14.32;3.92;;;28.60;69.50;;;;;;4991249;28;20506;-64
2022/06/18 10:33:22;;;;;;;8.52;3.67;;;28.50;69.50;;;;;;4974136;28;20066;-65
2022/06/18 10:35:50;;;;;;;7.25;3.55;;;27.00;69.40;;;;;;4974444;28;20118;-68
2022/06/18 10:38:28;;;;;;;15.68;4.05;;;28.30;69.70;;;;;;4991432;28;20635;-68
2022/06/18 10:40:59;;;;;;;8.73;3.70;;;29.00;76.00;;;;;;4989888;28;20050;-67
2022/06/18 10:43:51;;;;;;;9.13;3.88;;;28.30;74.90;;;;;;4974921;28;20106;-69
2022/06/18 10:46:19;;;;;;;11.80;3.95;;;28.20;70.20;;;;;;4990555;28;20061;-67
2022/06/18 10:49:01;;;;;;;10.20;3.75;;;28.40;72.80;;;;;;5009500;28;20096;-67
2022/06/18 10:51:29;;;;;;;10.65;3.53;;;28.70;73.70;;;;;;5010241;28;20046;-67
2022/06/18 10:53:57;;;;;;;10.38;3.75;;;28.90;72.50;;;;;;5009541;28;20046;-67
2022/06/18 10:56:30;;;;;;;11.20;3.70;;;28.90;74.60;;;;;;5010928;28;20088;-68
2022/06/18 10:58:59;;;;;;;9.15;3.90;;;29.10;71.70;;;;;;5041878;28;20051;-67
2022/06/18 11:01:40;;;;;;;10.50;3.90;;;29.20;71.50;;;;;;5112619;28;20501;-67
2022/06/18 11:04:23;;;;;;;9.15;3.50;;;29.50;76.30;;;;;;5112641;28;20100;-67
2022/06/18 11:06:54;;;;;;;10.73;3.60;;;29.40;70.50;;;;;;5099958;28;20127;-67
2022/06/18 11:09:24;;;;;;;12.30;3.83;;;29.50;69.90;;;;;;5071611;28;20173;-67
2022/06/18 11:11:56;;;;;;;14.02;3.55;;;30.00;74.30;;;;;;5091899;28;20048;-67
2022/06/18 11:14:23;;;;;;;12.73;3.47;;;29.80;68.40;;;;;;5092741;28;20060;-67
2022/06/18 11:16:54;;;;;;;11.70;3.95;;;28.70;71.30;;;;;;5091049;28;20105;-68
2022/06/18 11:19:32;;;;;;;10.77;3.58;;;29.90;68.30;;;;;;5092583;28;20070;-67
2022/06/18 11:22:30;;;;;;;9.18;3.58;;;30.00;68.70;;;;;;5091276;28;20048;-67
2022/06/18 11:24:59;;;;;;;8.40;3.42;;;29.90;68.70;;;;;;5046584;28;20048;-67
2022/06/18 11:27:34;;;;;;;9.85;3.30;;;29.90;68.90;;;;;;5092927;28;20054;-67
2022/06/18 11:30:09;;;;;;;8.85;3.30;;;30.10;66.80;;;;;;5091210;28;20461;-68
2022/06/18 11:32:41;;;;;;;10.65;3.53;;;29.90;67.40;;;;;;5091091;28;20056;-68
2022/06/18 11:35:21;;;;;;;13.27;3.72;;;29.70;72.30;;;;;;5073567;28;20571;-69
2022/06/18 11:38:01;;;;;;;15.82;3.90;;;29.80;68.50;;;;;;5091636;28;20060;-67
2022/06/18 11:40:28;;;;;;;12.20;3.60;;;29.90;69.00;;;;;;5091574;28;20115;-67
2022/06/18 11:43:15;;;;;;;9.98;3.70;;;30.10;69.20;;;;;;5056332;28;20043;-68
2022/06/18 11:46:20;;;;;;;9.98;3.75;;;30.20;67.30;;;;;;5091467;28;20125;-68
2022/06/18 11:49:00;;;;;;;10.63;3.70;;;30.20;66.10;;;;;;5090641;28;20154;-69
2022/06/18 11:51:47;;;;;;;11.70;3.50;;;30.10;71.00;;;;;;5072043;28;20048;-67
2022/06/18 11:54:22;;;;;;;10.70;3.53;;;30.30;67.50;;;;;;5071992;28;20442;-68
2022/06/18 11:56:53;;;;;;;;;;;30.40;67.60;;;;;;5053224;28;20044;-68
2022/06/18 11:59:22;;;;;;;8.00;3.65;;;30.50;68.10;;;;;;5072549;28;19968;-68
2022/06/18 12:01:53;;;;;;;8.75;3.70;;;30.50;66.30;;;;;;5070636;28;20198;-68
2022/06/18 12:04:23;;;;;;;7.68;3.40;;;30.60;66.10;;;;;;5072246;28;20084;-68
2022/06/18 12:06:59;;;;;;;9.88;3.60;;;30.70;69.60;;;;;;5071665;28;20044;-68
2022/06/18 12:09:27;;;;;;;8.60;3.65;;;30.70;66.10;;;;;;5054087;28;20369;-68
2022/06/18 12:12:05;;;;;;;9.85;3.60;;;30.80;66.00;;;;;;5071767;28;20048;-68
2022/06/18 12:14:43;;;;;;;9.30;3.33;;;30.70;66.60;;;;;;5053908;28;20059;-68
2022/06/18 12:17:23;;;;;;;14.60;3.38;;;30.80;65.20;;;;;;5053738;28;20091;-68
2022/06/18 12:19:59;;;;;;;12.68;3.60;;;30.90;65.10;;;;;;5071306;28;20048;-68
2022/06/18 12:22:39;;;;;;;12.50;3.60;;;31.00;65.30;;;;;;5072046;28;20403;-68
2022/06/18 12:25:30;;;;;;;16.73;3.95;;;31.00;66.00;;;;;;5053670;28;20055;-68
2022/06/18 12:28:17;;;;;;;14.75;3.38;;;31.10;67.10;;;;;;5070893;28;20395;-68
2022/06/18 12:31:01;;;;;;;15.45;3.72;;;31.20;65.80;;;;;;5071413;28;20044;-66
2022/06/18 12:33:44;;;;;;;11.47;3.50;;;31.10;64.50;;;;;;5071540;28;20093;-67
2022/06/18 12:36:30;;;;;;;12.18;3.70;;;30.90;64.40;;;;;;5071096;28;20381;-67
2022/06/18 12:39:16;;;;;;;11.57;3.70;;;30.30;64.50;;;;;;5071178;28;20052;-67
2022/06/18 12:41:47;;;;;;;9.70;3.30;;;30.10;67.40;;;;;;5071034;28;20049;-67
2022/06/18 12:44:28;;;;;;;10.65;3.47;;;30.10;67.10;;;;;;5071352;28;20372;-68
2022/06/18 12:47:06;;;;;;;12.25;3.30;;;30.10;67.90;;;;;;5070943;28;20561;-68
2022/06/18 12:49:40;;;;;;;10.43;3.42;;;30.00;67.40;;;;;;5071328;28;20135;-68
2022/06/18 12:52:30;;;;;;;7.60;3.10;;;29.40;70.40;;;;;;5070931;28;20064;-68
2022/06/18 12:55:33;;;;;;;10.00;3.38;;;29.40;67.60;;;;;;5070087;28;20423;-67
2022/06/18 12:58:29;;;;;;;15.60;3.28;;;29.10;68.20;;;;;;5057604;28;20084;-67
2022/06/18 13:01:16;;;;;;;10.88;3.30;;;29.00;68.90;;;;;;5070142;28;20048;-67
2022/06/18 13:04:02;;;;;;;12.93;3.70;;;28.90;70.50;;;;;;5071026;28;20045;-67
2022/06/18 13:06:49;;;;;;;13.45;3.55;;;29.00;71.70;;;;;;5071416;28;20060;-67
2022/06/18 13:09:46;;;;;;;7.60;3.22;;;29.20;71.90;;;;;;5071257;28;20442;-66
2022/06/18 13:12:43;;;;;;;6.93;3.20;;;29.70;70.30;;;;;;5052930;28;20135;-67
2022/06/18 13:15:33;;;;;;;7.57;3.00;;;29.90;71.40;;;;;;5070375;28;20048;-67
2022/06/18 13:18:44;;;;;;;9.98;3.40;;;30.00;70.80;;;;;;5070070;28;20060;-67
2022/06/18 13:21:10;;;;;;;9.90;3.33;;;30.10;71.90;;;;;;5070644;28;20052;-67